sensor_id;sensor_type;location;lat;lon;timestamp;temperature;humidity
17968;DHT22;9109;48.050;11.696;2022-10-16T03:46:44;13.40;99.90
17968;DHT22;9109;48.050;11.696;2022-10-16T03:49:45;13.40;99.90
17968;DHT22;9109;48.050;11.696;2022-10-16T03:52:47;13.30;99.90
17968;DHT22;9109;48.050;11.696;2022-10-16T03:55:49;13.40;99.90
17968;DHT22;9109;48.050;11.696;2022-10-16T03:58:51;13.20;99.90
17968;DHT22;9109;48.050;11.696;2022-10-16T04:01:54;13.20;99.90
17968;DHT22;9109;48.050;11.696;2022-10-16T04:04:56;13.10;99.90
17968;DHT22;9109;48.050;11.696;2022-10-16T04:07:59;13.10;99.90
17968;DHT22;9109;48.050;11.696;2022-10-16T04:11:01;13.10;99.90
17968;DHT22;9109;48.050;11.696;2022-10-16T04:14:03;13.20;99.90
17968;DHT22;9109;48.050;11.696;2022-10-16T04:17:06;13.10;99.90
17968;DHT22;9109;48.050;11.696;2022-10-16T04:20:08;13.10;99.90
17968;DHT22;9109;48.050;11.696;2022-10-16T04:23:10;13.00;99.90
17968;DHT22;9109;48.050;11.696;2022-10-16T04:26:12;13.00;99.90
17968;DHT22;9109;48.050;11.696;2022-10-16T04:29:14;13.00;99.90
17968;DHT22;9109;48.050;11.696;2022-10-16T04:32:18;13.00;99.90
17968;DHT22;9109;48.050;11.696;2022-10-16T04:35:21;13.10;99.90
17968;DHT22;9109;48.050;11.696;2022-10-16T04:38:23;13.20;99.90
17968;DHT22;9109;48.050;11.696;2022-10-16T04:41:25;13.20;99.90
17968;DHT22;9109;48.050;11.696;2022-10-16T04:44:27;13.10;99.90
17968;DHT22;9109;48.050;11.696;2022-10-16T04:47:30;13.10;99.90
17968;DHT22;9109;48.050;11.696;2022-10-16T04:50:32;13.20;99.90
17968;DHT22;9109;48.050;11.696;2022-10-16T04:53:34;13.20;99.90
17968;DHT22;9109;48.050;11.696;2022-10-16T04:56:36;13.20;99.90
17968;DHT22;9109;48.050;11.696;2022-10-16T04:59:43;13.20;99.90
17968;DHT22;9109;48.050;11.696;2022-10-16T05:02:46;13.20;99.90
17968;DHT22;9109;48.050;11.696;2022-10-16T05:05:48;13.20;99.90
17968;DHT22;9109;48.050;11.696;2022-10-16T05:08:50;13.20;99.90
17968;DHT22;9109;48.050;11.696;2022-10-16T05:11:52;13.20;99.90
17968;DHT22;9109;48.050;11.696;2022-10-16T05:14:54;13.20;99.90
17968;DHT22;9109;48.050;11.696;2022-10-16T05:18:00;13.30;99.90
17968;DHT22;9109;48.050;11.696;2022-10-16T05:21:02;13.30;99.90
17968;DHT22;9109;48.050;11.696;2022-10-16T05:24:04;13.30;99.90
17968;DHT22;9109;48.050;11.696;2022-10-16T05:27:06;13.30;99.90
17968;DHT22;9109;48.050;11.696;2022-10-16T05:30:09;13.30;99.90
17968;DHT22;9109;48.050;11.696;2022-10-16T05:33:12;13.30;99.90
17968;DHT22;9109;48.050;11.696;2022-10-16T05:36:14;13.30;99.90
17968;DHT22;9109;48.050;11.696;2022-10-16T05:39:16;13.40;99.90
17968;DHT22;9109;48.050;11.696;2022-10-16T05:42:18;13.40;99.90
17968;DHT22;9109;48.050;11.696;2022-10-16T05:45:20;13.30;99.90
17968;DHT22;9109;48.050;11.696;2022-10-16T05:48:24;13.30;99.90
17968;DHT22;9109;48.050;11.696;2022-10-16T05:51:26;13.40;99.90
17968;DHT22;9109;48.050;11.696;2022-10-16T05:54:28;13.40;99.90
17968;DHT22;9109;48.050;11.696;2022-10-16T05:57:30;13.40;99.90
17968;DHT22;9109;48.050;11.696;2022-10-16T06:00:32;13.50;99.90
17968;DHT22;9109;48.050;11.696;2022-10-16T06:03:36;13.40;99.90
17968;DHT22;9109;48.050;11.696;2022-10-16T06:07:16;13.40;99.90
17968;DHT22;9109;48.050;11.696;2022-10-16T06:10:39;13.50;99.90
17968;DHT22;9109;48.050;11.696;2022-10-16T06:13:41;13.40;99.90
17968;DHT22;9109;48.050;11.696;2022-10-16T06:16:46;13.50;99.90
17968;DHT22;9109;48.050;11.696;2022-10-16T06:23:11;13.50;99.90
17968;DHT22;9109;48.050;11.696;2022-10-16T06:26:23;13.50;99.90
17968;DHT22;9109;48.050;11.696;2022-10-16T06:29:36;13.50;99.90
17968;DHT22;9109;48.050;11.696;2022-10-16T06:32:39;13.60;99.90
17968;DHT22;9109;48.050;11.696;2022-10-16T06:39:33;13.70;99.90
17968;DHT22;9109;48.050;11.696;2022-10-16T06:42:34;13.70;99.90
17968;DHT22;9109;48.050;11.696;2022-10-16T06:45:36;13.70;99.90
17968;DHT22;9109;48.050;11.696;2022-10-16T06:48:38;13.70;99.90
17968;DHT22;9109;48.050;11.696;2022-10-16T06:51:40;13.80;99.90
17968;DHT22;9109;48.050;11.696;2022-10-16T06:54:43;13.80;99.90
17968;DHT22;9109;48.050;11.696;2022-10-16T06:57:47;13.90;99.90
17968;DHT22;9109;48.050;11.696;2022-10-16T07:00:50;13.90;99.90
17968;DHT22;9109;48.050;11.696;2022-10-16T07:03:56;13.90;99.90
17968;DHT22;9109;48.050;11.696;2022-10-16T07:07:00;14.00;99.90
17968;DHT22;9109;48.050;11.696;2022-10-16T07:10:04;14.00;99.90
17968;DHT22;9109;48.050;11.696;2022-10-16T07:13:06;14.10;99.90
17968;DHT22;9109;48.050;11.696;2022-10-16T07:16:11;14.10;99.90
17968;DHT22;9109;48.050;11.696;2022-10-16T07:19:14;14.20;99.90
17968;DHT22;9109;48.050;11.696;2022-10-16T07:22:18;14.20;99.90
17968;DHT22;9109;48.050;11.696;2022-10-16T07:25:21;14.30;99.90
17968;DHT22;9109;48.050;11.696;2022-10-16T07:28:23;14.40;99.90
17968;DHT22;9109;48.050;11.696;2022-10-16T07:31:26;14.50;99.90
17968;DHT22;9109;48.050;11.696;2022-10-16T07:34:28;14.60;99.90
17968;DHT22;9109;48.050;11.696;2022-10-16T07:37:30;14.70;99.90
17968;DHT22;9109;48.050;11.696;2022-10-16T07:40:33;14.80;99.90
17968;DHT22;9109;48.050;11.696;2022-10-16T07:43:35;14.90;99.90
17968;DHT22;9109;48.050;11.696;2022-10-16T07:46:37;14.90;99.90
17968;DHT22;9109;48.050;11.696;2022-10-16T07:49:39;15.00;99.90
17968;DHT22;9109;48.050;11.696;2022-10-16T07:52:41;15.10;99.90
17968;DHT22;9109;48.050;11.696;2022-10-16T07:55:44;15.20;99.90
17968;DHT22;9109;48.050;11.696;2022-10-16T07:58:46;15.30;99.90
17968;DHT22;9109;48.050;11.696;2022-10-16T08:01:50;15.40;99.90
17968;DHT22;9109;48.050;11.696;2022-10-16T08:04:52;15.40;99.90
17968;DHT22;9109;48.050;11.696;2022-10-16T08:07:54;15.60;99.90
17968;DHT22;9109;48.050;11.696;2022-10-16T08:10:58;15.70;99.90
17968;DHT22;9109;48.050;11.696;2022-10-16T08:14:00;15.80;99.90
17968;DHT22;9109;48.050;11.696;2022-10-16T08:17:02;15.80;99.90
17968;DHT22;9109;48.050;11.696;2022-10-16T08:20:05;15.90;99.90
17968;DHT22;9109;48.050;11.696;2022-10-16T08:23:09;16.00;99.90
17968;DHT22;9109;48.050;11.696;2022-10-16T08:26:13;16.10;99.90
17968;DHT22;9109;48.050;11.696;2022-10-16T08:29:15;16.20;99.90
17968;DHT22;9109;48.050;11.696;2022-10-16T08:32:17;16.20;99.90
17968;DHT22;9109;48.050;11.696;2022-10-16T08:35:19;16.30;99.90
17968;DHT22;9109;48.050;11.696;2022-10-16T08:38:21;16.50;99.90
17968;DHT22;9109;48.050;11.696;2022-10-16T08:41:40;16.60;99.90
17968;DHT22;9109;48.050;11.696;2022-10-16T08:48:27;16.80;99.90
17968;DHT22;9109;48.050;11.696;2022-10-16T08:51:33;16.90;99.90
17968;DHT22;9109;48.050;11.696;2022-10-16T08:54:42;17.10;99.90
17968;DHT22;9109;48.050;11.696;2022-10-16T08:57:46;17.30;99.90
17968;DHT22;9109;48.050;11.696;2022-10-16T09:00:50;17.50;99.90
17968;DHT22;9109;48.050;11.696;2022-10-16T09:04:07;17.50;99.90
17968;DHT22;9109;48.050;11.696;2022-10-16T09:07:17;17.60;99.90
17968;DHT22;9109;48.050;11.696;2022-10-16T09:10:29;17.60;99.90
17968;DHT22;9109;48.050;11.696;2022-10-16T09:13:45;17.60;99.90
17968;DHT22;9109;48.050;11.696;2022-10-16T09:16:53;17.60;99.90
17968;DHT22;9109;48.050;11.696;2022-10-16T09:20:17;17.80;99.90
17968;DHT22;9109;48.050;11.696;2022-10-16T09:23:25;17.90;99.90
17968;DHT22;9109;48.050;11.696;2022-10-16T09:26:28;18.00;99.90
17968;DHT22;9109;48.050;11.696;2022-10-16T09:29:32;18.00;99.90
17968;DHT22;9109;48.050;11.696;2022-10-16T09:32:33;18.10;99.90
17968;DHT22;9109;48.050;11.696;2022-10-16T09:35:38;18.10;99.90
17968;DHT22;9109;48.050;11.696;2022-10-16T09:38:40;18.20;99.90
17968;DHT22;9109;48.050;11.696;2022-10-16T09:41:44;18.30;99.90
17968;DHT22;9109;48.050;11.696;2022-10-16T09:44:50;18.50;99.90
17968;DHT22;9109;48.050;11.696;2022-10-16T09:47:53;18.50;99.90
17968;DHT22;9109;48.050;11.696;2022-10-16T09:50:56;18.60;99.90
17968;DHT22;9109;48.050;11.696;2022-10-16T09:54:00;18.80;99.90
17968;DHT22;9109;48.050;11.696;2022-10-16T09:57:06;18.90;99.90
17968;DHT22;9109;48.050;11.696;2022-10-16T10:00:15;19.00;99.90
17968;DHT22;9109;48.050;11.696;2022-10-16T10:03:34;19.10;99.90
17968;DHT22;9109;48.050;11.696;2022-10-16T10:06:40;19.40;99.90
17968;DHT22;9109;48.050;11.696;2022-10-16T10:09:44;19.40;99.90
17968;DHT22;9109;48.050;11.696;2022-10-16T10:12:47;19.50;99.90
17968;DHT22;9109;48.050;11.696;2022-10-16T10:15:50;19.50;99.90
17968;DHT22;9109;48.050;11.696;2022-10-16T10:18:58;19.60;99.90
17968;DHT22;9109;48.050;11.696;2022-10-16T10:22:00;19.70;99.90
17968;DHT22;9109;48.050;11.696;2022-10-16T10:25:15;19.90;99.90
17968;DHT22;9109;48.050;11.696;2022-10-16T10:28:42;20.00;99.90
17968;DHT22;9109;48.050;11.696;2022-10-16T10:31:51;20.00;99.90
17968;DHT22;9109;48.050;11.696;2022-10-16T10:35:06;20.10;99.90
17968;DHT22;9109;48.050;11.696;2022-10-16T10:38:20;20.20;99.90
17968;DHT22;9109;48.050;11.696;2022-10-16T10:42:07;20.30;99.90
17968;DHT22;9109;48.050;11.696;2022-10-16T10:45:24;20.40;99.90
17968;DHT22;9109;48.050;11.696;2022-10-16T10:48:53;20.40;99.90
17968;DHT22;9109;48.050;11.696;2022-10-16T10:52:02;20.60;99.80
17968;DHT22;9109;48.050;11.696;2022-10-16T10:55:14;20.80;99.90
17968;DHT22;9109;48.050;11.696;2022-10-16T10:58:33;20.80;99.90
17968;DHT22;9109;48.050;11.696;2022-10-16T11:01:43;20.90;99.50
17968;DHT22;9109;48.050;11.696;2022-10-16T11:08:15;21.00;94.50
17968;DHT22;9109;48.050;11.696;2022-10-16T11:11:24;21.10;94.80
17968;DHT22;9109;48.050;11.696;2022-10-16T11:14:31;21.20;95.10
17968;DHT22;9109;48.050;11.696;2022-10-16T11:17:38;21.30;92.00
17968;DHT22;9109;48.050;11.696;2022-10-16T11:20:48;21.50;93.70
17968;DHT22;9109;48.050;11.696;2022-10-16T11:23:53;21.50;90.90
17968;DHT22;9109;48.050;11.696;2022-10-16T11:27:00;21.50;90.20
17968;DHT22;9109;48.050;11.696;2022-10-16T11:30:13;21.70;87.80
17968;DHT22;9109;48.050;11.696;2022-10-16T11:33:27;21.70;87.70
17968;DHT22;9109;48.050;11.696;2022-10-16T11:36:38;21.70;90.10
17968;DHT22;9109;48.050;11.696;2022-10-16T11:39:43;21.80;85.70
17968;DHT22;9109;48.050;11.696;2022-10-16T11:42:50;21.70;88.00
17968;DHT22;9109;48.050;11.696;2022-10-16T11:45:55;21.70;88.00
17968;DHT22;9109;48.050;11.696;2022-10-16T11:49:06;21.80;86.60
17968;DHT22;9109;48.050;11.696;2022-10-16T11:52:15;21.90;84.70
17968;DHT22;9109;48.050;11.696;2022-10-16T11:55:20;22.10;85.50
17968;DHT22;9109;48.050;11.696;2022-10-16T11:58:28;22.00;85.30
17968;DHT22;9109;48.050;11.696;2022-10-16T12:01:35;22.10;84.80
17968;DHT22;9109;48.050;11.696;2022-10-16T12:04:45;22.10;85.20
17968;DHT22;9109;48.050;11.696;2022-10-16T12:07:56;22.10;78.60
17968;DHT22;9109;48.050;11.696;2022-10-16T12:11:09;22.10;82.90
17968;DHT22;9109;48.050;11.696;2022-10-16T12:14:37;22.10;85.00
17968;DHT22;9109;48.050;11.696;2022-10-16T12:17:40;22.20;81.00
17968;DHT22;9109;48.050;11.696;2022-10-16T12:20:42;22.20;78.80
17968;DHT22;9109;48.050;11.696;2022-10-16T12:23:50;22.30;82.00
17968;DHT22;9109;48.050;11.696;2022-10-16T12:26:52;22.30;77.00
17968;DHT22;9109;48.050;11.696;2022-10-16T12:29:56;22.40;77.40
17968;DHT22;9109;48.050;11.696;2022-10-16T12:33:00;22.30;76.60
17968;DHT22;9109;48.050;11.696;2022-10-16T12:36:07;22.30;75.60
17968;DHT22;9109;48.050;11.696;2022-10-16T12:39:20;22.30;77.30
17968;DHT22;9109;48.050;11.696;2022-10-16T12:42:32;22.40;77.70
17968;DHT22;9109;48.050;11.696;2022-10-16T12:45:34;22.50;76.90
17968;DHT22;9109;48.050;11.696;2022-10-16T12:48:37;22.50;80.00
17968;DHT22;9109;48.050;11.696;2022-10-16T12:51:41;22.50;77.40
17968;DHT22;9109;48.050;11.696;2022-10-16T12:54:45;22.50;75.80
17968;DHT22;9109;48.050;11.696;2022-10-16T12:58:00;22.50;75.70
17968;DHT22;9109;48.050;11.696;2022-10-16T13:01:10;22.60;78.00
17968;DHT22;9109;48.050;11.696;2022-10-16T13:04:43;22.60;75.70
17968;DHT22;9109;48.050;11.696;2022-10-16T13:07:55;22.60;73.30
17968;DHT22;9109;48.050;11.696;2022-10-16T13:11:07;22.50;72.20
17968;DHT22;9109;48.050;11.696;2022-10-16T13:14:27;22.50;75.70
17968;DHT22;9109;48.050;11.696;2022-10-16T13:17:40;22.50;71.10
17968;DHT22;9109;48.050;11.696;2022-10-16T13:21:02;22.50;72.90
17968;DHT22;9109;48.050;11.696;2022-10-16T13:24:16;22.40;71.30
17968;DHT22;9109;48.050;11.696;2022-10-16T13:27:30;22.40;73.70
17968;DHT22;9109;48.050;11.696;2022-10-16T13:30:38;22.50;74.90
17968;DHT22;9109;48.050;11.696;2022-10-16T13:33:42;22.60;73.50
17968;DHT22;9109;48.050;11.696;2022-10-16T13:36:49;22.60;72.80
17968;DHT22;9109;48.050;11.696;2022-10-16T13:40:06;22.60;73.80
17968;DHT22;9109;48.050;11.696;2022-10-16T13:43:15;22.70;71.90
17968;DHT22;9109;48.050;11.696;2022-10-16T13:46:19;22.70;70.70
17968;DHT22;9109;48.050;11.696;2022-10-16T13:49:21;22.70;72.20
17968;DHT22;9109;48.050;11.696;2022-10-16T13:52:23;22.70;69.50
17968;DHT22;9109;48.050;11.696;2022-10-16T13:55:25;22.50;74.10
17968;DHT22;9109;48.050;11.696;2022-10-16T13:58:28;22.30;71.60
17968;DHT22;9109;48.050;11.696;2022-10-16T14:01:31;22.30;71.00
17968;DHT22;9109;48.050;11.696;2022-10-16T14:04:38;22.20;68.90
17968;DHT22;9109;48.050;11.696;2022-10-16T14:07:40;22.20;72.40
17968;DHT22;9109;48.050;11.696;2022-10-16T14:10:48;22.20;71.50
17968;DHT22;9109;48.050;11.696;2022-10-16T14:13:52;22.20;73.20
17968;DHT22;9109;48.050;11.696;2022-10-16T14:16:54;22.20;72.20
17968;DHT22;9109;48.050;11.696;2022-10-16T14:19:58;22.30;69.70
17968;DHT22;9109;48.050;11.696;2022-10-16T14:23:02;22.40;71.00
17968;DHT22;9109;48.050;11.696;2022-10-16T14:26:16;22.30;72.90
17968;DHT22;9109;48.050;11.696;2022-10-16T14:29:20;22.30;71.90
17968;DHT22;9109;48.050;11.696;2022-10-16T14:32:26;22.40;69.90
17968;DHT22;9109;48.050;11.696;2022-10-16T14:35:30;22.40;67.60
17968;DHT22;9109;48.050;11.696;2022-10-16T14:38:32;22.40;70.60
17968;DHT22;9109;48.050;11.696;2022-10-16T14:41:43;22.30;69.30
17968;DHT22;9109;48.050;11.696;2022-10-16T14:44:47;22.20;70.70
17968;DHT22;9109;48.050;11.696;2022-10-16T14:47:53;22.10;71.90
17968;DHT22;9109;48.050;11.696;2022-10-16T14:50:55;22.10;69.30
17968;DHT22;9109;48.050;11.696;2022-10-16T14:53:57;22.20;70.50
17968;DHT22;9109;48.050;11.696;2022-10-16T14:56:59;22.10;73.30
17968;DHT22;9109;48.050;11.696;2022-10-16T15:00:03;22.20;74.00
17968;DHT22;9109;48.050;11.696;2022-10-16T15:03:05;22.10;74.70
17968;DHT22;9109;48.050;11.696;2022-10-16T15:06:09;21.90;76.30
17968;DHT22;9109;48.050;11.696;2022-10-16T15:09:12;21.80;74.90
17968;DHT22;9109;48.050;11.696;2022-10-16T15:12:14;21.70;76.10
17968;DHT22;9109;48.050;11.696;2022-10-16T15:15:32;21.70;76.80
17968;DHT22;9109;48.050;11.696;2022-10-16T15:18:36;21.60;77.90
17968;DHT22;9109;48.050;11.696;2022-10-16T15:21:39;21.40;78.50
17968;DHT22;9109;48.050;11.696;2022-10-16T15:24:41;21.30;79.00
17968;DHT22;9109;48.050;11.696;2022-10-16T15:27:42;21.20;80.20
17968;DHT22;9109;48.050;11.696;2022-10-16T15:30:46;21.10;80.40
17968;DHT22;9109;48.050;11.696;2022-10-16T15:33:51;20.90;82.20
17968;DHT22;9109;48.050;11.696;2022-10-16T15:36:54;20.80;83.90
17968;DHT22;9109;48.050;11.696;2022-10-16T15:39:58;20.60;84.90
17968;DHT22;9109;48.050;11.696;2022-10-16T15:43:00;20.40;86.30
17968;DHT22;9109;48.050;11.696;2022-10-16T15:46:05;20.30;89.70
17968;DHT22;9109;48.050;11.696;2022-10-16T15:49:09;20.20;91.00
17968;DHT22;9109;48.050;11.696;2022-10-16T15:52:11;20.10;91.40
17968;DHT22;9109;48.050;11.696;2022-10-16T15:55:14;20.00;90.90
17968;DHT22;9109;48.050;11.696;2022-10-16T15:58:16;19.90;91.50
17968;DHT22;9109;48.050;11.696;2022-10-16T16:01:20;19.90;91.90
17968;DHT22;9109;48.050;11.696;2022-10-16T16:04:22;19.90;91.30
17968;DHT22;9109;48.050;11.696;2022-10-16T16:07:24;19.80;92.00
17968;DHT22;9109;48.050;11.696;2022-10-16T16:10:25;19.80;92.00
17968;DHT22;9109;48.050;11.696;2022-10-16T16:13:27;19.70;91.90
17968;DHT22;9109;48.050;11.696;2022-10-16T16:16:31;19.60;92.20
17968;DHT22;9109;48.050;11.696;2022-10-16T16:19:37;19.50;92.60
17968;DHT22;9109;48.050;11.696;2022-10-16T16:22:39;19.30;93.40
17968;DHT22;9109;48.050;11.696;2022-10-16T16:25:41;19.20;94.10
17968;DHT22;9109;48.050;11.696;2022-10-16T16:28:43;19.10;95.80
17968;DHT22;9109;48.050;11.696;2022-10-16T16:31:46;18.80;96.60
17968;DHT22;9109;48.050;11.696;2022-10-16T16:34:48;18.70;97.90
17968;DHT22;9109;48.050;11.696;2022-10-16T16:37:50;18.60;99.60
17968;DHT22;9109;48.050;11.696;2022-10-16T16:40:52;18.50;99.90
17968;DHT22;9109;48.050;11.696;2022-10-16T16:43:54;18.50;99.90
17968;DHT22;9109;48.050;11.696;2022-10-16T16:46:58;18.50;99.90
17968;DHT22;9109;48.050;11.696;2022-10-16T16:50:00;18.40;99.90
17968;DHT22;9109;48.050;11.696;2022-10-16T16:53:05;18.30;99.90
17968;DHT22;9109;48.050;11.696;2022-10-16T16:56:07;18.30;99.90
17968;DHT22;9109;48.050;11.696;2022-10-16T16:59:12;18.40;99.90
17968;DHT22;9109;48.050;11.696;2022-10-16T17:02:16;18.40;99.90
17968;DHT22;9109;48.050;11.696;2022-10-16T17:05:18;18.50;99.90
17968;DHT22;9109;48.050;11.696;2022-10-16T17:08:20;18.40;99.90
17968;DHT22;9109;48.050;11.696;2022-10-16T17:11:24;18.30;99.90
17968;DHT22;9109;48.050;11.696;2022-10-16T17:14:26;18.20;99.90
17968;DHT22;9109;48.050;11.696;2022-10-16T17:17:29;18.20;99.90
17968;DHT22;9109;48.050;11.696;2022-10-16T17:20:32;18.20;99.90
17968;DHT22;9109;48.050;11.696;2022-10-16T17:23:37;18.20;99.90
17968;DHT22;9109;48.050;11.696;2022-10-16T17:26:40;18.10;99.90
17968;DHT22;9109;48.050;11.696;2022-10-16T17:29:44;18.10;99.90
17968;DHT22;9109;48.050;11.696;2022-10-16T17:32:47;18.10;99.90
17968;DHT22;9109;48.050;11.696;2022-10-16T17:35:49;18.00;99.90
17968;DHT22;9109;48.050;11.696;2022-10-16T17:38:51;17.90;99.90
17968;DHT22;9109;48.050;11.696;2022-10-16T17:41:53;17.90;99.90
17968;DHT22;9109;48.050;11.696;2022-10-16T17:44:55;17.80;99.90
17968;DHT22;9109;48.050;11.696;2022-10-16T17:47:59;17.80;99.90
17968;DHT22;9109;48.050;11.696;2022-10-16T17:51:03;17.70;99.90
17968;DHT22;9109;48.050;11.696;2022-10-16T17:54:05;17.70;99.90
17968;DHT22;9109;48.050;11.696;2022-10-16T17:57:07;17.60;99.90
17968;DHT22;9109;48.050;11.696;2022-10-16T18:00:10;17.60;99.90
17968;DHT22;9109;48.050;11.696;2022-10-16T18:03:13;17.60;99.90
17968;DHT22;9109;48.050;11.696;2022-10-16T18:06:15;17.60;99.90
17968;DHT22;9109;48.050;11.696;2022-10-16T18:09:22;17.50;99.90
17968;DHT22;9109;48.050;11.696;2022-10-16T18:12:24;17.40;99.90
17968;DHT22;9109;48.050;11.696;2022-10-16T18:15:25;17.40;99.90
17968;DHT22;9109;48.050;11.696;2022-10-16T18:18:29;17.40;99.90
17968;DHT22;9109;48.050;11.696;2022-10-16T18:21:31;17.30;99.90
17968;DHT22;9109;48.050;11.696;2022-10-16T18:24:35;17.30;99.90
17968;DHT22;9109;48.050;11.696;2022-10-16T18:27:37;17.20;99.90
17968;DHT22;9109;48.050;11.696;2022-10-16T18:30:39;17.20;99.90
17968;DHT22;9109;48.050;11.696;2022-10-16T18:33:43;17.20;99.90
17968;DHT22;9109;48.050;11.696;2022-10-16T18:36:51;17.10;99.90
17968;DHT22;9109;48.050;11.696;2022-10-16T18:39:54;17.10;99.90
17968;DHT22;9109;48.050;11.696;2022-10-16T18:42:56;17.10;99.90
17968;DHT22;9109;48.050;11.696;2022-10-16T18:45:59;17.10;99.90
17968;DHT22;9109;48.050;11.696;2022-10-16T18:49:02;17.10;99.90
17968;DHT22;9109;48.050;11.696;2022-10-16T18:52:05;17.10;99.90
17968;DHT22;9109;48.050;11.696;2022-10-16T18:55:08;17.10;99.90
17968;DHT22;9109;48.050;11.696;2022-10-16T18:58:10;17.10;99.90
17968;DHT22;9109;48.050;11.696;2022-10-16T19:01:14;17.00;99.90
17968;DHT22;9109;48.050;11.696;2022-10-16T19:04:17;16.90;99.90
17968;DHT22;9109;48.050;11.696;2022-10-16T19:07:21;16.90;99.90
17968;DHT22;9109;48.050;11.696;2022-10-16T19:10:23;16.90;99.90
17968;DHT22;9109;48.050;11.696;2022-10-16T19:13:25;16.90;99.90
17968;DHT22;9109;48.050;11.696;2022-10-16T19:16:29;16.90;99.90
17968;DHT22;9109;48.050;11.696;2022-10-16T19:19:33;16.90;99.90
17968;DHT22;9109;48.050;11.696;2022-10-16T19:22:37;16.90;99.90
17968;DHT22;9109;48.050;11.696;2022-10-16T19:25:53;16.80;99.90
17968;DHT22;9109;48.050;11.696;2022-10-16T19:28:56;16.80;99.90
17968;DHT22;9109;48.050;11.696;2022-10-16T19:31:58;16.80;99.90
17968;DHT22;9109;48.050;11.696;2022-10-16T19:35:04;16.80;99.90
17968;DHT22;9109;48.050;11.696;2022-10-16T19:38:07;16.70;99.90
17968;DHT22;9109;48.050;11.696;2022-10-16T19:41:10;16.80;99.90
17968;DHT22;9109;48.050;11.696;2022-10-16T19:44:14;16.80;99.90
17968;DHT22;9109;48.050;11.696;2022-10-16T19:47:16;16.70;99.90
17968;DHT22;9109;48.050;11.696;2022-10-16T19:50:20;16.70;99.90
17968;DHT22;9109;48.050;11.696;2022-10-16T19:53:22;16.70;99.90
17968;DHT22;9109;48.050;11.696;2022-10-16T19:56:25;16.60;99.90
17968;DHT22;9109;48.050;11.696;2022-10-16T19:59:28;16.60;99.90
17968;DHT22;9109;48.050;11.696;2022-10-16T20:02:30;16.50;99.90
17968;DHT22;9109;48.050;11.696;2022-10-16T20:05:34;16.50;99.90
17968;DHT22;9109;48.050;11.696;2022-10-16T20:08:40;16.50;99.90
17968;DHT22;9109;48.050;11.696;2022-10-16T20:11:45;16.50;99.90
17968;DHT22;9109;48.050;11.696;2022-10-16T20:14:47;16.50;99.90
17968;DHT22;9109;48.050;11.696;2022-10-16T20:17:51;16.40;99.90
17968;DHT22;9109;48.050;11.696;2022-10-16T20:20:54;16.40;99.90
17968;DHT22;9109;48.050;11.696;2022-10-16T20:27:07;16.40;99.90
17968;DHT22;9109;48.050;11.696;2022-10-16T20:30:25;16.30;99.90
17968;DHT22;9109;48.050;11.696;2022-10-16T20:33:28;16.30;99.90
17968;DHT22;9109;48.050;11.696;2022-10-16T20:36:41;16.20;99.90
17968;DHT22;9109;48.050;11.696;2022-10-16T20:39:57;16.20;99.90
17968;DHT22;9109;48.050;11.696;2022-10-16T20:43:03;16.10;99.90
17968;DHT22;9109;48.050;11.696;2022-10-16T20:46:07;16.10;99.90
17968;DHT22;9109;48.050;11.696;2022-10-16T20:49:09;16.10;99.90
17968;DHT22;9109;48.050;11.696;2022-10-16T20:52:13;16.00;99.90
17968;DHT22;9109;48.050;11.696;2022-10-16T20:55:22;16.00;99.90
17968;DHT22;9109;48.050;11.696;2022-10-16T20:58:24;15.90;99.90
17968;DHT22;9109;48.050;11.696;2022-10-16T21:01:27;15.90;99.90
17968;DHT22;9109;48.050;11.696;2022-10-16T21:04:30;15.90;99.90
17968;DHT22;9109;48.050;11.696;2022-10-16T21:07:33;15.90;99.90
17968;DHT22;9109;48.050;11.696;2022-10-16T21:10:35;15.90;99.90
17968;DHT22;9109;48.050;11.696;2022-10-16T21:13:37;15.80;99.90
17968;DHT22;9109;48.050;11.696;2022-10-16T21:16:39;15.70;99.90
17968;DHT22;9109;48.050;11.696;2022-10-16T21:19:44;15.60;99.90
17968;DHT22;9109;48.050;11.696;2022-10-16T21:22:48;15.70;99.90
17968;DHT22;9109;48.050;11.696;2022-10-16T21:25:50;15.60;99.90
17968;DHT22;9109;48.050;11.696;2022-10-16T21:28:52;15.60;99.90
17968;DHT22;9109;48.050;11.696;2022-10-16T21:31:54;15.40;99.90
17968;DHT22;9109;48.050;11.696;2022-10-16T21:34:56;15.30;99.90
17968;DHT22;9109;48.050;11.696;2022-10-16T21:37:59;15.30;99.90
17968;DHT22;9109;48.050;11.696;2022-10-16T21:41:11;15.30;99.90
17968;DHT22;9109;48.050;11.696;2022-10-16T21:44:13;15.30;99.90
17968;DHT22;9109;48.050;11.696;2022-10-16T21:47:15;15.30;99.90
17968;DHT22;9109;48.050;11.696;2022-10-16T21:50:17;15.40;99.90
17968;DHT22;9109;48.050;11.696;2022-10-16T21:53:20;15.40;99.90
17968;DHT22;9109;48.050;11.696;2022-10-16T21:56:23;15.40;99.90
17968;DHT22;9109;48.050;11.696;2022-10-16T21:59:25;15.40;99.90
17968;DHT22;9109;48.050;11.696;2022-10-16T22:02:27;15.30;99.90
17968;DHT22;9109;48.050;11.696;2022-10-16T22:05:34;15.30;99.90
17968;DHT22;9109;48.050;11.696;2022-10-16T22:08:38;15.30;99.90
17968;DHT22;9109;48.050;11.696;2022-10-16T22:11:43;15.30;99.90
17968;DHT22;9109;48.050;11.696;2022-10-16T22:14:46;15.20;99.90
17968;DHT22;9109;48.050;11.696;2022-10-16T22:17:48;15.20;99.90
17968;DHT22;9109;48.050;11.696;2022-10-16T22:20:50;15.30;99.90
17968;DHT22;9109;48.050;11.696;2022-10-16T22:23:53;15.20;99.90
17968;DHT22;9109;48.050;11.696;2022-10-16T22:26:56;15.20;99.90
17968;DHT22;9109;48.050;11.696;2022-10-16T22:30:00;15.10;99.90
17968;DHT22;9109;48.050;11.696;2022-10-16T22:33:06;15.10;99.90
17968;DHT22;9109;48.050;11.696;2022-10-16T22:36:12;15.00;99.90
17968;DHT22;9109;48.050;11.696;2022-10-16T22:39:16;15.00;99.90
17968;DHT22;9109;48.050;11.696;2022-10-16T22:42:18;15.00;99.90
17968;DHT22;9109;48.050;11.696;2022-10-16T22:45:20;15.00;99.90
17968;DHT22;9109;48.050;11.696;2022-10-16T22:48:31;14.90;99.90
17968;DHT22;9109;48.050;11.696;2022-10-16T22:51:33;14.80;99.90
17968;DHT22;9109;48.050;11.696;2022-10-16T22:54:36;14.80;99.90
17968;DHT22;9109;48.050;11.696;2022-10-16T22:57:38;14.80;99.90
